createdAt,value
2023-05-08T00:01:53.523Z,10.8
2023-05-08T00:11:52.254Z,10.8
2023-05-08T00:16:53.629Z,14.1
2023-05-08T00:21:52.257Z,12.5
2023-05-08T00:31:52.304Z,10.8
2023-05-08T00:36:52.376Z,12.1
2023-05-08T00:41:52.230Z,9.2
2023-05-08T01:06:52.321Z,13.2
2023-05-08T01:11:56.567Z,12.6
2023-05-08T01:16:53.532Z,8.3
2023-05-08T01:21:52.269Z,8.1
2023-05-08T01:26:52.341Z,8.6
2023-05-08T01:36:52.373Z,9.7
2023-05-08T01:46:53.700Z,6.9
2023-05-08T02:01:55.314Z,8.8
2023-05-08T02:06:52.339Z,8.2
2023-05-08T02:11:52.264Z,8.0
2023-05-08T02:16:52.459Z,11.7
2023-05-08T02:21:52.249Z,9.5
2023-05-08T02:26:52.337Z,11.8
2023-05-08T02:31:52.319Z,11.8
2023-05-08T02:36:52.383Z,17.3
2023-05-08T02:41:52.269Z,11.4
2023-05-08T02:46:52.374Z,9.9
2023-05-08T02:51:53.517Z,11.5
2023-05-08T02:56:52.336Z,12.8
2023-05-08T03:01:52.321Z,12.8
2023-05-08T03:11:52.265Z,10.3
2023-05-08T03:16:52.384Z,7.8
2023-05-08T03:21:53.523Z,7.6
2023-05-08T03:26:52.357Z,6.5
2023-05-08T03:31:52.259Z,6.5
2023-05-08T03:41:53.508Z,9.4
2023-05-08T03:46:52.401Z,6.1
2023-05-08T03:51:52.271Z,5.5
2023-05-08T03:56:52.344Z,9.8
2023-05-08T04:01:54.577Z,9.8
2023-05-08T04:06:52.407Z,8.1
2023-05-08T04:11:52.280Z,8.5
2023-05-08T04:16:53.596Z,8.3
2023-05-08T04:21:54.564Z,7.2
2023-05-08T04:26:52.350Z,5.8
2023-05-08T04:31:52.333Z,5.8
2023-05-08T04:36:52.365Z,6.3
2023-05-08T04:41:52.302Z,5.4
2023-05-08T04:46:52.392Z,8.4
2023-05-08T04:51:52.280Z,4.9
2023-05-08T04:56:54.534Z,5.5
2023-05-08T05:01:54.644Z,5.5
2023-05-08T05:06:52.356Z,8.2
2023-05-08T05:11:52.293Z,5.1
2023-05-08T05:16:52.390Z,8.9
2023-05-08T05:21:52.283Z,8.9
2023-05-08T05:31:52.362Z,8.2
2023-05-08T05:36:52.357Z,8.5
2023-05-08T05:41:52.286Z,11.6
2023-05-08T05:46:53.599Z,6.7
2023-05-08T05:51:52.279Z,7.2
2023-05-08T05:56:52.360Z,6.9
2023-05-08T06:01:53.563Z,6.9
2023-05-08T06:06:52.357Z,9.3
2023-05-08T06:16:54.631Z,13.7
2023-05-08T06:21:52.283Z,10.3
2023-05-08T06:26:54.534Z,9.8
2023-05-08T06:31:52.277Z,9.8
2023-05-08T06:36:53.585Z,10.7
2023-05-08T06:41:52.278Z,8.7
2023-05-08T06:46:52.442Z,10.4
2023-05-08T06:51:54.885Z,13.8
2023-05-08T06:56:53.556Z,8.3
2023-05-08T07:01:52.511Z,8.3
2023-05-08T07:06:52.411Z,9.8
2023-05-08T07:11:53.600Z,8.9
2023-05-08T07:16:53.621Z,6.2
2023-05-08T07:21:52.365Z,6.9
2023-05-08T07:26:53.561Z,7.8
2023-05-08T07:31:53.598Z,7.8
2023-05-08T07:41:52.341Z,6.0
2023-05-08T07:46:52.465Z,5.5
2023-05-08T07:51:53.552Z,5.5
2023-05-08T08:01:52.381Z,7.9
2023-05-08T08:11:53.552Z,5.7
2023-05-08T08:16:53.578Z,5.6
2023-05-08T08:21:52.337Z,5.6
2023-05-08T08:26:52.391Z,6.2
2023-05-08T08:31:52.336Z,6.2
2023-05-08T08:36:53.555Z,4.9
2023-05-08T08:46:53.710Z,4.4
2023-05-08T08:51:53.604Z,5.7
2023-05-08T08:56:52.397Z,5.1
2023-05-08T09:01:53.615Z,5.1
2023-05-08T09:06:52.402Z,4.8
2023-05-08T09:11:53.585Z,4.8
2023-05-08T09:16:52.544Z,6.3
2023-05-08T09:21:52.326Z,6.2
2023-05-08T09:26:53.582Z,5.3
2023-05-08T09:31:53.690Z,5.3
2023-05-08T09:36:52.412Z,5.3
2023-05-08T09:41:52.309Z,6.6
2023-05-08T09:46:52.442Z,6.2
2023-05-08T09:51:52.390Z,6.2
2023-05-08T09:56:54.639Z,4.9
2023-05-08T10:06:53.591Z,3.4
2023-05-08T10:11:52.390Z,3.8
2023-05-08T10:16:53.605Z,5.2
2023-05-08T10:21:52.340Z,3.4
2023-05-08T10:27:05.726Z,4.4
2023-05-08T10:31:52.326Z,4.4
2023-05-08T10:36:54.055Z,4.1
2023-05-08T10:41:52.336Z,3.9
2023-05-08T10:46:52.445Z,4.9
2023-05-08T10:51:52.337Z,4.4
2023-05-08T10:56:53.785Z,4.2
2023-05-08T11:01:52.385Z,4.2
2023-05-08T11:06:53.635Z,5.7
2023-05-08T11:11:52.337Z,5.6
2023-05-08T11:16:52.419Z,6.9
2023-05-08T11:21:52.334Z,3.7
2023-05-08T11:26:52.437Z,6.6
2023-05-08T11:31:53.686Z,6.6
2023-05-08T11:36:52.462Z,6.9
2023-05-08T11:41:52.326Z,6.4
2023-05-08T11:46:53.919Z,6.7
2023-05-08T11:51:52.374Z,4.7
2023-05-08T11:56:55.738Z,5.2
2023-05-08T12:06:52.422Z,9.8
2023-05-08T12:11:52.343Z,6.2
2023-05-08T12:16:52.543Z,4.4
2023-05-08T12:21:52.403Z,5.0
2023-05-08T12:26:52.427Z,8.8
2023-05-08T12:31:52.370Z,8.8
2023-05-08T12:36:52.474Z,6.2
2023-05-08T12:41:53.660Z,7.8
2023-05-08T12:46:52.482Z,4.8
2023-05-08T12:56:53.656Z,3.2
2023-05-08T13:06:52.449Z,4.7
2023-05-08T13:11:52.364Z,4.1
2023-05-08T13:21:02.772Z,4.7
2023-05-08T13:26:02.750Z,4.7
2023-05-08T13:31:02.723Z,4.9
2023-05-08T13:36:05.060Z,3.2
2023-05-08T13:41:02.793Z,5.1
2023-05-08T13:46:06.802Z,3.3
2023-05-08T13:51:05.019Z,5.0
2023-05-08T13:56:04.027Z,5.0
2023-05-08T14:01:13.809Z,3.0
2023-05-08T14:11:04.018Z,3.2
2023-05-08T14:21:04.001Z,7.1
2023-05-08T14:26:03.999Z,7.1
2023-05-08T14:31:04.095Z,6.1
2023-05-08T14:36:04.987Z,4.4
2023-05-08T14:41:04.596Z,3.7
2023-05-08T14:46:04.048Z,2.9
2023-05-08T14:51:02.743Z,3.1
2023-05-08T14:56:02.927Z,3.1
2023-05-08T15:01:02.754Z,3.4
2023-05-08T15:06:05.079Z,3.4
2023-05-08T15:16:05.056Z,3.1
2023-05-08T15:21:02.769Z,4.8
2023-05-08T15:26:04.044Z,4.8
2023-05-08T15:31:02.760Z,3.4
2023-05-08T15:36:02.902Z,3.3
2023-05-08T15:41:02.760Z,3.5
2023-05-08T15:46:02.853Z,4.5
2023-05-08T15:51:02.805Z,4.9
2023-05-08T15:56:02.766Z,4.9
2023-05-08T16:06:02.818Z,3.8
2023-05-08T16:11:02.773Z,2.8
2023-05-08T16:16:02.845Z,3.9
2023-05-08T16:21:02.794Z,2.7
2023-05-08T16:26:04.047Z,2.7
2023-05-08T16:31:04.079Z,3.4
2023-05-08T16:36:05.070Z,2.5
2023-05-08T16:41:02.792Z,5.0
2023-05-08T16:46:04.063Z,3.9
2023-05-08T16:51:04.047Z,4.3
2023-05-08T16:56:02.818Z,4.3
2023-05-08T17:01:04.092Z,4.3
2023-05-08T17:06:02.809Z,3.4
2023-05-08T17:11:04.077Z,3.9
2023-05-08T17:16:02.833Z,3.4
2023-05-08T17:21:02.808Z,4.3
2023-05-08T17:26:04.072Z,4.3
2023-05-08T17:31:02.773Z,3.8
2023-05-08T17:36:02.906Z,4.2
2023-05-08T17:41:05.176Z,5.0
2023-05-08T17:46:04.105Z,2.2
2023-05-08T17:51:02.819Z,4.1
2023-05-08T17:56:03.130Z,4.1
2023-05-08T18:01:02.882Z,5.3
2023-05-08T18:06:04.100Z,3.6
2023-05-08T18:16:02.949Z,5.2
2023-05-08T18:21:02.816Z,3.5
2023-05-08T18:26:02.931Z,3.5
2023-05-08T18:31:04.121Z,2.4
2023-05-08T18:36:04.080Z,3.2
2023-05-08T18:41:02.854Z,2.7
2023-05-08T18:46:02.853Z,2.3
2023-05-08T18:56:02.925Z,3.9
2023-05-08T19:01:02.845Z,1.6
2023-05-08T19:06:02.928Z,2.7
2023-05-08T19:11:04.101Z,3.9
2023-05-08T19:16:02.942Z,5.2
2023-05-08T19:21:04.106Z,2.6
2023-05-08T19:26:02.963Z,2.6
2023-05-08T19:31:02.843Z,2.9
2023-05-08T19:36:04.117Z,3.5
2023-05-08T19:41:04.108Z,2.5
2023-05-08T19:46:05.180Z,3.7
2023-05-08T19:51:05.169Z,3.3
2023-05-08T20:06:02.929Z,3.7
2023-05-08T20:11:05.169Z,4.2
2023-05-08T20:16:03.074Z,3.9
2023-05-08T20:21:04.109Z,4.2
2023-05-08T20:26:02.970Z,4.2
2023-05-08T20:31:03.057Z,4.7
2023-05-08T20:36:05.198Z,3.3
2023-05-08T20:41:02.872Z,1.9
2023-05-08T20:46:03.134Z,2.5
2023-05-08T20:51:04.136Z,1.9
2023-05-08T20:56:02.999Z,1.9
2023-05-08T21:01:05.225Z,1.9
2023-05-08T21:11:05.159Z,3.0
2023-05-08T21:16:05.218Z,3.4
2023-05-08T21:21:02.931Z,3.4
2023-05-08T21:26:04.144Z,2.4
2023-05-08T21:31:03.010Z,4.1
2023-05-08T21:36:04.212Z,2.8
2023-05-08T21:41:02.891Z,3.1
2023-05-08T21:46:04.194Z,5.7
2023-05-08T21:51:02.899Z,5.7
2023-05-08T22:01:02.884Z,5.5
2023-05-08T22:11:02.915Z,11.6
2023-05-08T22:16:02.974Z,9.6
2023-05-08T22:21:02.908Z,9.6
2023-05-08T22:26:04.213Z,8.7
2023-05-08T22:31:02.905Z,5.9
2023-05-08T22:36:04.193Z,5.1
2023-05-08T22:41:02.916Z,4.5
2023-05-08T22:46:04.400Z,5.7
2023-05-08T22:51:02.911Z,5.7
2023-05-08T22:56:03.002Z,5.4
2023-05-08T23:01:02.923Z,7.0
2023-05-08T23:06:02.966Z,4.9
2023-05-08T23:11:02.913Z,10.6
2023-05-08T23:16:04.138Z,9.1
2023-05-08T23:21:04.170Z,9.1
2023-05-08T23:26:03.018Z,9.9
2023-05-08T23:31:02.942Z,8.6
2023-05-08T23:36:02.983Z,8.9
2023-05-08T23:41:04.174Z,10.7
2023-05-08T23:46:03.027Z,10.1
2023-05-08T23:51:02.914Z,10.1
2023-05-08T23:56:03.009Z,8.7
